sensor_id;sensor_type;location;lat;lon;timestamp;P1;durP1;ratioP1;P2;durP2;ratioP2
50495;SDS011;38806;51.554;5.704;2022-08-19T00:00:39;33.65;;;25.48;;
50495;SDS011;38806;51.554;5.704;2022-08-19T00:02:40;38.67;;;28.10;;
50495;SDS011;38806;51.554;5.704;2022-08-19T00:04:41;45.00;;;33.60;;
50495;SDS011;38806;51.554;5.704;2022-08-19T00:06:42;47.33;;;34.47;;
50495;SDS011;38806;51.554;5.704;2022-08-19T00:08:44;36.60;;;28.75;;
50495;SDS011;38806;51.554;5.704;2022-08-19T00:10:44;44.90;;;33.67;;
50495;SDS011;38806;51.554;5.704;2022-08-19T00:12:45;41.35;;;32.03;;
50495;SDS011;38806;51.554;5.704;2022-08-19T00:14:46;39.30;;;30.15;;
50495;SDS011;38806;51.554;5.704;2022-08-19T00:16:47;40.17;;;29.73;;
50495;SDS011;38806;51.554;5.704;2022-08-19T00:18:48;39.88;;;30.38;;
50495;SDS011;38806;51.554;5.704;2022-08-19T00:20:49;42.05;;;31.60;;
50495;SDS011;38806;51.554;5.704;2022-08-19T00:22:49;40.50;;;31.77;;
50495;SDS011;38806;51.554;5.704;2022-08-19T00:24:49;42.80;;;32.15;;
50495;SDS011;38806;51.554;5.704;2022-08-19T00:26:50;40.88;;;33.22;;
50495;SDS011;38806;51.554;5.704;2022-08-19T00:28:51;45.35;;;33.28;;
50495;SDS011;38806;51.554;5.704;2022-08-19T00:30:51;42.22;;;31.70;;
50495;SDS011;38806;51.554;5.704;2022-08-19T00:32:53;43.58;;;31.80;;
50495;SDS011;38806;51.554;5.704;2022-08-19T00:34:55;41.97;;;31.88;;
50495;SDS011;38806;51.554;5.704;2022-08-19T00:36:55;41.53;;;30.23;;
50495;SDS011;38806;51.554;5.704;2022-08-19T00:38:56;42.05;;;31.55;;
50495;SDS011;38806;51.554;5.704;2022-08-19T00:40:57;41.45;;;31.27;;
50495;SDS011;38806;51.554;5.704;2022-08-19T00:42:57;33.95;;;26.58;;
50495;SDS011;38806;51.554;5.704;2022-08-19T00:44:57;34.33;;;26.33;;
50495;SDS011;38806;51.554;5.704;2022-08-19T00:46:58;34.13;;;25.27;;
50495;SDS011;38806;51.554;5.704;2022-08-19T00:48:59;35.88;;;27.38;;
50495;SDS011;38806;51.554;5.704;2022-08-19T00:51:03;44.35;;;30.77;;
50495;SDS011;38806;51.554;5.704;2022-08-19T00:53:05;36.10;;;27.92;;
50495;SDS011;38806;51.554;5.704;2022-08-19T00:55:07;40.70;;;30.05;;
50495;SDS011;38806;51.554;5.704;2022-08-19T00:57:12;44.42;;;32.25;;
50495;SDS011;38806;51.554;5.704;2022-08-19T00:59:16;59.00;;;38.85;;
50495;SDS011;38806;51.554;5.704;2022-08-19T01:01:18;63.03;;;42.17;;
50495;SDS011;38806;51.554;5.704;2022-08-19T01:03:19;113.90;;;62.15;;
50495;SDS011;38806;51.554;5.704;2022-08-19T01:05:22;87.40;;;54.55;;
50495;SDS011;38806;51.554;5.704;2022-08-19T01:07:27;96.78;;;59.15;;
50495;SDS011;38806;51.554;5.704;2022-08-19T01:09:28;74.90;;;50.05;;
50495;SDS011;38806;51.554;5.704;2022-08-19T01:11:30;109.68;;;64.32;;
50495;SDS011;38806;51.554;5.704;2022-08-19T01:13:33;125.10;;;73.35;;
50495;SDS011;38806;51.554;5.704;2022-08-19T01:15:38;118.68;;;67.75;;
50495;SDS011;38806;51.554;5.704;2022-08-19T01:17:42;133.65;;;72.72;;
50495;SDS011;38806;51.554;5.704;2022-08-19T01:19:43;106.75;;;64.25;;
50495;SDS011;38806;51.554;5.704;2022-08-19T01:21:57;92.13;;;59.28;;
50495;SDS011;38806;51.554;5.704;2022-08-19T01:24:02;81.28;;;52.95;;
50495;SDS011;38806;51.554;5.704;2022-08-19T01:26:02;75.53;;;49.15;;
50495;SDS011;38806;51.554;5.704;2022-08-19T01:28:03;60.55;;;41.25;;
50495;SDS011;38806;51.554;5.704;2022-08-19T01:30:04;61.33;;;41.10;;
50495;SDS011;38806;51.554;5.704;2022-08-19T01:32:06;59.60;;;42.97;;
50495;SDS011;38806;51.554;5.704;2022-08-19T01:34:08;61.95;;;41.45;;
50495;SDS011;38806;51.554;5.704;2022-08-19T01:36:12;54.92;;;38.67;;
50495;SDS011;38806;51.554;5.704;2022-08-19T01:38:25;47.97;;;34.30;;
50495;SDS011;38806;51.554;5.704;2022-08-19T01:40:28;48.60;;;33.90;;
50495;SDS011;38806;51.554;5.704;2022-08-19T01:42:32;44.50;;;30.15;;
50495;SDS011;38806;51.554;5.704;2022-08-19T01:44:32;45.55;;;33.03;;
50495;SDS011;38806;51.554;5.704;2022-08-19T01:46:33;48.88;;;34.00;;
50495;SDS011;38806;51.554;5.704;2022-08-19T01:48:38;45.65;;;30.08;;
50495;SDS011;38806;51.554;5.704;2022-08-19T01:50:40;46.15;;;33.58;;
50495;SDS011;38806;51.554;5.704;2022-08-19T01:52:41;50.63;;;32.80;;
50495;SDS011;38806;51.554;5.704;2022-08-19T01:54:42;49.45;;;36.45;;
50495;SDS011;38806;51.554;5.704;2022-08-19T01:56:43;52.58;;;37.13;;
50495;SDS011;38806;51.554;5.704;2022-08-19T01:58:45;48.25;;;36.30;;
50495;SDS011;38806;51.554;5.704;2022-08-19T02:00:50;45.03;;;32.03;;
50495;SDS011;38806;51.554;5.704;2022-08-19T02:02:50;49.85;;;35.63;;
50495;SDS011;38806;51.554;5.704;2022-08-19T02:04:51;52.72;;;36.95;;
50495;SDS011;38806;51.554;5.704;2022-08-19T02:06:51;48.60;;;34.28;;
50495;SDS011;38806;51.554;5.704;2022-08-19T02:08:52;47.83;;;34.70;;
50495;SDS011;38806;51.554;5.704;2022-08-19T02:10:52;48.97;;;33.38;;
50495;SDS011;38806;51.554;5.704;2022-08-19T02:12:53;45.67;;;32.63;;
50495;SDS011;38806;51.554;5.704;2022-08-19T02:14:54;48.85;;;33.03;;
50495;SDS011;38806;51.554;5.704;2022-08-19T02:16:54;43.80;;;32.30;;
50495;SDS011;38806;51.554;5.704;2022-08-19T02:18:54;50.20;;;33.10;;
50495;SDS011;38806;51.554;5.704;2022-08-19T02:20:55;45.53;;;31.42;;
50495;SDS011;38806;51.554;5.704;2022-08-19T02:22:55;41.85;;;30.50;;
50495;SDS011;38806;51.554;5.704;2022-08-19T02:24:55;49.85;;;33.15;;
50495;SDS011;38806;51.554;5.704;2022-08-19T02:26:55;48.90;;;32.38;;
50495;SDS011;38806;51.554;5.704;2022-08-19T02:28:57;40.20;;;29.85;;
50495;SDS011;38806;51.554;5.704;2022-08-19T02:30:57;40.83;;;30.30;;
50495;SDS011;38806;51.554;5.704;2022-08-19T02:32:58;44.08;;;28.80;;
50495;SDS011;38806;51.554;5.704;2022-08-19T02:34:59;48.75;;;32.60;;
50495;SDS011;38806;51.554;5.704;2022-08-19T02:37:00;45.90;;;31.73;;
50495;SDS011;38806;51.554;5.704;2022-08-19T02:39:00;42.50;;;31.17;;
50495;SDS011;38806;51.554;5.704;2022-08-19T02:41:02;43.63;;;29.10;;
50495;SDS011;38806;51.554;5.704;2022-08-19T02:43:06;40.67;;;30.40;;
50495;SDS011;38806;51.554;5.704;2022-08-19T02:45:08;40.70;;;29.20;;
50495;SDS011;38806;51.554;5.704;2022-08-19T02:47:09;50.05;;;32.65;;
50495;SDS011;38806;51.554;5.704;2022-08-19T02:49:10;45.33;;;31.40;;
50495;SDS011;38806;51.554;5.704;2022-08-19T02:51:15;42.53;;;31.15;;
50495;SDS011;38806;51.554;5.704;2022-08-19T02:53:19;39.58;;;28.60;;
50495;SDS011;38806;51.554;5.704;2022-08-19T02:55:22;41.95;;;29.88;;
50495;SDS011;38806;51.554;5.704;2022-08-19T02:57:22;33.67;;;25.73;;
50495;SDS011;38806;51.554;5.704;2022-08-19T02:59:22;43.83;;;31.35;;
50495;SDS011;38806;51.554;5.704;2022-08-19T03:01:28;35.58;;;25.95;;
50495;SDS011;38806;51.554;5.704;2022-08-19T03:03:30;38.67;;;26.87;;
50495;SDS011;38806;51.554;5.704;2022-08-19T03:05:31;40.13;;;28.15;;
50495;SDS011;38806;51.554;5.704;2022-08-19T03:07:32;38.45;;;26.95;;
50495;SDS011;38806;51.554;5.704;2022-08-19T03:09:32;42.38;;;29.23;;
50495;SDS011;38806;51.554;5.704;2022-08-19T03:11:32;42.13;;;27.63;;
50495;SDS011;38806;51.554;5.704;2022-08-19T03:13:33;43.75;;;30.08;;
50495;SDS011;38806;51.554;5.704;2022-08-19T03:15:33;42.08;;;28.30;;
50495;SDS011;38806;51.554;5.704;2022-08-19T03:17:34;42.55;;;28.70;;
50495;SDS011;38806;51.554;5.704;2022-08-19T03:19:35;41.78;;;29.02;;
50495;SDS011;38806;51.554;5.704;2022-08-19T03:21:35;42.40;;;30.48;;
50495;SDS011;38806;51.554;5.704;2022-08-19T03:23:35;42.05;;;30.15;;
50495;SDS011;38806;51.554;5.704;2022-08-19T03:25:36;48.25;;;31.65;;
50495;SDS011;38806;51.554;5.704;2022-08-19T03:27:38;49.70;;;32.97;;
50495;SDS011;38806;51.554;5.704;2022-08-19T03:29:38;54.10;;;36.38;;
50495;SDS011;38806;51.554;5.704;2022-08-19T03:31:40;51.60;;;31.98;;
50495;SDS011;38806;51.554;5.704;2022-08-19T03:33:43;53.50;;;33.10;;
50495;SDS011;38806;51.554;5.704;2022-08-19T03:35:43;51.05;;;32.58;;
50495;SDS011;38806;51.554;5.704;2022-08-19T03:37:44;47.17;;;30.50;;
50495;SDS011;38806;51.554;5.704;2022-08-19T03:39:45;47.28;;;31.48;;
50495;SDS011;38806;51.554;5.704;2022-08-19T03:41:46;53.33;;;33.25;;
50495;SDS011;38806;51.554;5.704;2022-08-19T03:43:47;55.15;;;34.22;;
50495;SDS011;38806;51.554;5.704;2022-08-19T03:45:48;54.78;;;35.35;;
50495;SDS011;38806;51.554;5.704;2022-08-19T03:47:48;48.88;;;32.95;;
50495;SDS011;38806;51.554;5.704;2022-08-19T03:49:49;51.40;;;31.67;;
50495;SDS011;38806;51.554;5.704;2022-08-19T03:51:49;50.50;;;30.95;;
50495;SDS011;38806;51.554;5.704;2022-08-19T03:53:50;57.47;;;34.60;;
50495;SDS011;38806;51.554;5.704;2022-08-19T03:55:51;50.35;;;31.92;;
50495;SDS011;38806;51.554;5.704;2022-08-19T03:57:51;54.75;;;32.30;;
50495;SDS011;38806;51.554;5.704;2022-08-19T03:59:51;53.45;;;32.67;;
50495;SDS011;38806;51.554;5.704;2022-08-19T04:01:55;53.72;;;35.83;;
50495;SDS011;38806;51.554;5.704;2022-08-19T04:03:58;60.90;;;37.35;;
50495;SDS011;38806;51.554;5.704;2022-08-19T04:05:58;63.10;;;38.47;;
50495;SDS011;38806;51.554;5.704;2022-08-19T04:07:59;55.60;;;36.88;;
50495;SDS011;38806;51.554;5.704;2022-08-19T04:10:00;54.45;;;33.95;;
50495;SDS011;38806;51.554;5.704;2022-08-19T04:12:00;52.78;;;35.42;;
50495;SDS011;38806;51.554;5.704;2022-08-19T04:14:01;49.65;;;30.80;;
50495;SDS011;38806;51.554;5.704;2022-08-19T04:16:02;44.85;;;29.80;;
50495;SDS011;38806;51.554;5.704;2022-08-19T04:18:03;52.70;;;32.97;;
50495;SDS011;38806;51.554;5.704;2022-08-19T04:20:07;50.60;;;32.53;;
50495;SDS011;38806;51.554;5.704;2022-08-19T04:22:08;52.22;;;33.33;;
50495;SDS011;38806;51.554;5.704;2022-08-19T04:24:08;57.85;;;36.45;;
50495;SDS011;38806;51.554;5.704;2022-08-19T04:26:17;54.63;;;31.98;;
50495;SDS011;38806;51.554;5.704;2022-08-19T04:28:19;59.03;;;35.65;;
50495;SDS011;38806;51.554;5.704;2022-08-19T04:30:19;67.32;;;38.60;;
50495;SDS011;38806;51.554;5.704;2022-08-19T04:32:22;66.70;;;39.75;;
50495;SDS011;38806;51.554;5.704;2022-08-19T04:34:23;62.28;;;35.70;;
50495;SDS011;38806;51.554;5.704;2022-08-19T04:36:26;55.63;;;35.53;;
50495;SDS011;38806;51.554;5.704;2022-08-19T04:38:28;65.35;;;38.40;;
50495;SDS011;38806;51.554;5.704;2022-08-19T04:40:29;50.78;;;34.25;;
50495;SDS011;38806;51.554;5.704;2022-08-19T04:42:48;68.70;;;40.20;;
50495;SDS011;38806;51.554;5.704;2022-08-19T04:44:48;60.95;;;37.65;;
50495;SDS011;38806;51.554;5.704;2022-08-19T04:46:50;53.15;;;33.22;;
50495;SDS011;38806;51.554;5.704;2022-08-19T04:48:51;62.47;;;37.75;;
50495;SDS011;38806;51.554;5.704;2022-08-19T04:50:52;62.13;;;38.50;;
50495;SDS011;38806;51.554;5.704;2022-08-19T04:52:57;72.30;;;42.40;;
50495;SDS011;38806;51.554;5.704;2022-08-19T04:54:58;65.05;;;39.20;;
50495;SDS011;38806;51.554;5.704;2022-08-19T04:56:58;56.38;;;35.00;;
50495;SDS011;38806;51.554;5.704;2022-08-19T04:58:58;70.18;;;43.72;;
50495;SDS011;38806;51.554;5.704;2022-08-19T05:01:03;70.95;;;42.28;;
50495;SDS011;38806;51.554;5.704;2022-08-19T05:03:04;67.03;;;39.35;;
50495;SDS011;38806;51.554;5.704;2022-08-19T05:05:04;74.32;;;44.80;;
50495;SDS011;38806;51.554;5.704;2022-08-19T05:07:07;74.97;;;44.35;;
50495;SDS011;38806;51.554;5.704;2022-08-19T05:09:07;73.95;;;46.25;;
50495;SDS011;38806;51.554;5.704;2022-08-19T05:11:12;71.88;;;42.13;;
50495;SDS011;38806;51.554;5.704;2022-08-19T05:13:15;64.65;;;43.20;;
50495;SDS011;38806;51.554;5.704;2022-08-19T05:15:16;71.55;;;44.78;;
50495;SDS011;38806;51.554;5.704;2022-08-19T05:17:17;69.05;;;45.65;;
50495;SDS011;38806;51.554;5.704;2022-08-19T05:19:18;74.18;;;43.85;;
50495;SDS011;38806;51.554;5.704;2022-08-19T05:21:38;67.28;;;41.42;;
50495;SDS011;38806;51.554;5.704;2022-08-19T05:23:59;65.53;;;42.25;;
50495;SDS011;38806;51.554;5.704;2022-08-19T05:25:59;67.28;;;41.70;;
50495;SDS011;38806;51.554;5.704;2022-08-19T05:27:59;66.03;;;45.30;;
50495;SDS011;38806;51.554;5.704;2022-08-19T05:30:00;67.22;;;41.88;;
50495;SDS011;38806;51.554;5.704;2022-08-19T05:32:02;62.58;;;41.90;;
50495;SDS011;38806;51.554;5.704;2022-08-19T05:34:05;67.40;;;42.47;;
50495;SDS011;38806;51.554;5.704;2022-08-19T05:36:06;66.63;;;42.40;;
50495;SDS011;38806;51.554;5.704;2022-08-19T05:38:07;64.50;;;42.42;;
50495;SDS011;38806;51.554;5.704;2022-08-19T05:40:08;97.88;;;53.60;;
50495;SDS011;38806;51.554;5.704;2022-08-19T05:42:10;83.70;;;51.25;;
50495;SDS011;38806;51.554;5.704;2022-08-19T05:44:11;105.93;;;56.47;;
50495;SDS011;38806;51.554;5.704;2022-08-19T05:46:17;111.22;;;61.85;;
50495;SDS011;38806;51.554;5.704;2022-08-19T05:48:18;132.77;;;69.03;;
50495;SDS011;38806;51.554;5.704;2022-08-19T05:50:20;126.25;;;69.65;;
50495;SDS011;38806;51.554;5.704;2022-08-19T05:52:21;128.10;;;69.55;;
50495;SDS011;38806;51.554;5.704;2022-08-19T05:54:22;138.75;;;77.28;;
50495;SDS011;38806;51.554;5.704;2022-08-19T05:56:23;164.10;;;87.75;;
50495;SDS011;38806;51.554;5.704;2022-08-19T05:58:23;155.15;;;85.20;;
50495;SDS011;38806;51.554;5.704;2022-08-19T06:00:24;150.38;;;85.43;;
50495;SDS011;38806;51.554;5.704;2022-08-19T06:02:28;147.13;;;84.70;;
50495;SDS011;38806;51.554;5.704;2022-08-19T06:04:30;146.43;;;84.85;;
50495;SDS011;38806;51.554;5.704;2022-08-19T06:06:30;161.20;;;91.75;;
50495;SDS011;38806;51.554;5.704;2022-08-19T06:08:31;156.38;;;87.45;;
50495;SDS011;38806;51.554;5.704;2022-08-19T06:10:32;152.85;;;86.75;;
50495;SDS011;38806;51.554;5.704;2022-08-19T06:12:33;167.27;;;91.03;;
50495;SDS011;38806;51.554;5.704;2022-08-19T06:14:35;145.40;;;88.43;;
50495;SDS011;38806;51.554;5.704;2022-08-19T06:16:37;161.35;;;93.60;;
50495;SDS011;38806;51.554;5.704;2022-08-19T06:18:39;158.75;;;89.60;;
50495;SDS011;38806;51.554;5.704;2022-08-19T06:20:39;171.63;;;95.45;;
50495;SDS011;38806;51.554;5.704;2022-08-19T06:22:41;151.82;;;92.55;;
50495;SDS011;38806;51.554;5.704;2022-08-19T06:24:43;159.75;;;91.10;;
50495;SDS011;38806;51.554;5.704;2022-08-19T06:26:44;150.63;;;86.03;;
50495;SDS011;38806;51.554;5.704;2022-08-19T06:28:46;152.82;;;91.68;;
50495;SDS011;38806;51.554;5.704;2022-08-19T06:30:48;144.20;;;85.13;;
50495;SDS011;38806;51.554;5.704;2022-08-19T06:32:48;148.85;;;86.65;;
50495;SDS011;38806;51.554;5.704;2022-08-19T06:34:48;138.70;;;85.20;;
50495;SDS011;38806;51.554;5.704;2022-08-19T06:36:49;143.73;;;82.65;;
50495;SDS011;38806;51.554;5.704;2022-08-19T06:38:51;138.40;;;79.22;;
50495;SDS011;38806;51.554;5.704;2022-08-19T06:40:59;135.02;;;79.45;;
50495;SDS011;38806;51.554;5.704;2022-08-19T06:43:00;125.22;;;77.18;;
50495;SDS011;38806;51.554;5.704;2022-08-19T06:45:02;117.97;;;74.82;;
50495;SDS011;38806;51.554;5.704;2022-08-19T06:47:04;126.32;;;73.05;;
50495;SDS011;38806;51.554;5.704;2022-08-19T06:49:06;121.40;;;71.10;;
50495;SDS011;38806;51.554;5.704;2022-08-19T06:51:10;111.53;;;66.90;;
50495;SDS011;38806;51.554;5.704;2022-08-19T06:53:10;109.20;;;69.32;;
50495;SDS011;38806;51.554;5.704;2022-08-19T06:55:11;103.25;;;68.32;;
50495;SDS011;38806;51.554;5.704;2022-08-19T06:57:11;103.85;;;66.35;;
50495;SDS011;38806;51.554;5.704;2022-08-19T06:59:16;113.30;;;65.15;;
50495;SDS011;38806;51.554;5.704;2022-08-19T07:01:19;107.78;;;63.45;;
50495;SDS011;38806;51.554;5.704;2022-08-19T07:03:20;102.43;;;61.35;;
50495;SDS011;38806;51.554;5.704;2022-08-19T07:05:21;89.10;;;55.92;;
50495;SDS011;38806;51.554;5.704;2022-08-19T07:07:21;100.93;;;63.22;;
50495;SDS011;38806;51.554;5.704;2022-08-19T07:09:22;86.30;;;58.15;;
50495;SDS011;38806;51.554;5.704;2022-08-19T07:11:22;83.97;;;52.97;;
50495;SDS011;38806;51.554;5.704;2022-08-19T07:13:22;85.88;;;56.15;;
50495;SDS011;38806;51.554;5.704;2022-08-19T07:15:23;77.60;;;52.88;;
50495;SDS011;38806;51.554;5.704;2022-08-19T07:17:23;81.13;;;53.55;;
50495;SDS011;38806;51.554;5.704;2022-08-19T07:19:24;83.40;;;51.75;;
50495;SDS011;38806;51.554;5.704;2022-08-19T07:21:28;75.00;;;50.70;;
50495;SDS011;38806;51.554;5.704;2022-08-19T07:23:28;80.10;;;53.30;;
50495;SDS011;38806;51.554;5.704;2022-08-19T07:25:29;79.75;;;47.97;;
50495;SDS011;38806;51.554;5.704;2022-08-19T07:27:29;82.18;;;51.70;;
50495;SDS011;38806;51.554;5.704;2022-08-19T07:29:31;81.03;;;47.70;;
50495;SDS011;38806;51.554;5.704;2022-08-19T07:31:33;78.72;;;49.05;;
50495;SDS011;38806;51.554;5.704;2022-08-19T07:33:36;74.97;;;48.72;;
50495;SDS011;38806;51.554;5.704;2022-08-19T07:35:37;75.95;;;48.67;;
50495;SDS011;38806;51.554;5.704;2022-08-19T07:37:38;75.00;;;48.95;;
50495;SDS011;38806;51.554;5.704;2022-08-19T07:39:43;74.05;;;48.25;;
50495;SDS011;38806;51.554;5.704;2022-08-19T07:41:44;70.10;;;47.60;;
50495;SDS011;38806;51.554;5.704;2022-08-19T07:43:46;69.22;;;46.00;;
50495;SDS011;38806;51.554;5.704;2022-08-19T07:45:48;64.07;;;42.35;;
50495;SDS011;38806;51.554;5.704;2022-08-19T07:47:48;65.20;;;42.75;;
50495;SDS011;38806;51.554;5.704;2022-08-19T07:49:48;56.95;;;40.00;;
50495;SDS011;38806;51.554;5.704;2022-08-19T07:51:52;55.58;;;39.05;;
50495;SDS011;38806;51.554;5.704;2022-08-19T07:54:04;56.17;;;38.38;;
50495;SDS011;38806;51.554;5.704;2022-08-19T07:56:06;59.58;;;39.15;;
50495;SDS011;38806;51.554;5.704;2022-08-19T07:58:07;63.53;;;38.50;;
50495;SDS011;38806;51.554;5.704;2022-08-19T08:00:07;56.97;;;38.22;;
50495;SDS011;38806;51.554;5.704;2022-08-19T08:02:08;53.45;;;35.17;;
50495;SDS011;38806;51.554;5.704;2022-08-19T08:04:08;70.45;;;35.97;;
50495;SDS011;38806;51.554;5.704;2022-08-19T08:06:28;55.63;;;36.08;;
50495;SDS011;38806;51.554;5.704;2022-08-19T08:08:47;53.40;;;36.85;;
50495;SDS011;38806;51.554;5.704;2022-08-19T08:11:06;49.35;;;34.15;;
50495;SDS011;38806;51.554;5.704;2022-08-19T08:13:07;40.90;;;31.23;;
50495;SDS011;38806;51.554;5.704;2022-08-19T08:15:10;49.33;;;33.08;;
50495;SDS011;38806;51.554;5.704;2022-08-19T08:17:19;50.85;;;33.05;;
50495;SDS011;38806;51.554;5.704;2022-08-19T08:19:21;64.72;;;32.85;;
50495;SDS011;38806;51.554;5.704;2022-08-19T08:21:22;47.17;;;32.22;;
50495;SDS011;38806;51.554;5.704;2022-08-19T08:23:23;59.50;;;33.55;;
50495;SDS011;38806;51.554;5.704;2022-08-19T08:25:28;43.00;;;31.13;;
50495;SDS011;38806;51.554;5.704;2022-08-19T08:27:29;47.53;;;33.08;;
50495;SDS011;38806;51.554;5.704;2022-08-19T08:29:30;39.70;;;27.25;;
50495;SDS011;38806;51.554;5.704;2022-08-19T08:31:31;45.78;;;31.67;;
50495;SDS011;38806;51.554;5.704;2022-08-19T08:33:33;39.15;;;27.05;;
50495;SDS011;38806;51.554;5.704;2022-08-19T08:35:34;40.97;;;28.77;;
50495;SDS011;38806;51.554;5.704;2022-08-19T08:37:34;43.85;;;31.02;;
50495;SDS011;38806;51.554;5.704;2022-08-19T08:39:35;39.88;;;28.33;;
50495;SDS011;38806;51.554;5.704;2022-08-19T08:44:01;33.22;;;26.33;;
50495;SDS011;38806;51.554;5.704;2022-08-19T08:46:05;36.08;;;25.98;;
50495;SDS011;38806;51.554;5.704;2022-08-19T08:48:14;31.20;;;23.17;;
50495;SDS011;38806;51.554;5.704;2022-08-19T08:50:22;39.33;;;27.45;;
50495;SDS011;38806;51.554;5.704;2022-08-19T08:52:30;34.85;;;27.05;;
50495;SDS011;38806;51.554;5.704;2022-08-19T08:54:37;34.58;;;27.30;;
50495;SDS011;38806;51.554;5.704;2022-08-19T08:59:02;31.15;;;24.80;;
50495;SDS011;38806;51.554;5.704;2022-08-19T09:01:11;33.55;;;25.63;;
50495;SDS011;38806;51.554;5.704;2022-08-19T09:03:24;31.38;;;25.98;;
50495;SDS011;38806;51.554;5.704;2022-08-19T09:05:30;32.83;;;27.20;;
50495;SDS011;38806;51.554;5.704;2022-08-19T09:08:06;30.73;;;25.70;;
50495;SDS011;38806;51.554;5.704;2022-08-19T09:10:15;27.42;;;23.40;;
50495;SDS011;38806;51.554;5.704;2022-08-19T09:12:32;31.00;;;23.50;;
50495;SDS011;38806;51.554;5.704;2022-08-19T09:14:41;23.13;;;20.00;;
50495;SDS011;38806;51.554;5.704;2022-08-19T09:16:47;24.38;;;21.20;;
50495;SDS011;38806;51.554;5.704;2022-08-19T09:18:50;31.00;;;23.83;;
50495;SDS011;38806;51.554;5.704;2022-08-19T09:20:53;26.67;;;21.35;;
50495;SDS011;38806;51.554;5.704;2022-08-19T09:22:53;25.67;;;22.45;;
50495;SDS011;38806;51.554;5.704;2022-08-19T09:24:54;24.92;;;21.45;;
50495;SDS011;38806;51.554;5.704;2022-08-19T09:26:54;22.58;;;20.20;;
50495;SDS011;38806;51.554;5.704;2022-08-19T09:28:55;28.00;;;22.95;;
50495;SDS011;38806;51.554;5.704;2022-08-19T09:30:56;33.28;;;26.90;;
50495;SDS011;38806;51.554;5.704;2022-08-19T09:32:58;33.10;;;27.30;;
50495;SDS011;38806;51.554;5.704;2022-08-19T09:34:59;31.63;;;27.73;;
50495;SDS011;38806;51.554;5.704;2022-08-19T09:37:00;28.35;;;25.40;;
50495;SDS011;38806;51.554;5.704;2022-08-19T09:39:01;33.05;;;28.85;;
50495;SDS011;38806;51.554;5.704;2022-08-19T09:41:04;31.98;;;27.60;;
50495;SDS011;38806;51.554;5.704;2022-08-19T09:43:06;35.83;;;32.22;;
50495;SDS011;38806;51.554;5.704;2022-08-19T09:45:07;37.85;;;29.75;;
50495;SDS011;38806;51.554;5.704;2022-08-19T09:47:08;33.08;;;28.20;;
50495;SDS011;38806;51.554;5.704;2022-08-19T09:49:10;39.50;;;29.00;;
50495;SDS011;38806;51.554;5.704;2022-08-19T09:51:11;37.80;;;30.33;;
50495;SDS011;38806;51.554;5.704;2022-08-19T09:53:16;33.90;;;29.67;;
50495;SDS011;38806;51.554;5.704;2022-08-19T09:55:17;40.85;;;30.77;;
50495;SDS011;38806;51.554;5.704;2022-08-19T09:57:17;38.00;;;31.55;;
50495;SDS011;38806;51.554;5.704;2022-08-19T09:59:17;38.25;;;29.25;;
50495;SDS011;38806;51.554;5.704;2022-08-19T10:01:19;38.25;;;26.73;;
50495;SDS011;38806;51.554;5.704;2022-08-19T10:03:21;36.97;;;30.42;;
50495;SDS011;38806;51.554;5.704;2022-08-19T10:05:22;36.13;;;27.33;;
50495;SDS011;38806;51.554;5.704;2022-08-19T10:07:41;33.72;;;26.98;;
50495;SDS011;38806;51.554;5.704;2022-08-19T10:09:42;32.00;;;24.13;;
50495;SDS011;38806;51.554;5.704;2022-08-19T10:11:43;27.73;;;22.13;;
50495;SDS011;38806;51.554;5.704;2022-08-19T10:13:49;29.10;;;23.98;;
50495;SDS011;38806;51.554;5.704;2022-08-19T10:15:50;28.45;;;23.33;;
50495;SDS011;38806;51.554;5.704;2022-08-19T10:17:52;30.75;;;25.23;;
50495;SDS011;38806;51.554;5.704;2022-08-19T10:19:52;33.17;;;25.67;;
50495;SDS011;38806;51.554;5.704;2022-08-19T10:21:53;31.25;;;23.95;;
50495;SDS011;38806;51.554;5.704;2022-08-19T10:23:55;33.17;;;23.92;;
50495;SDS011;38806;51.554;5.704;2022-08-19T10:25:59;32.90;;;26.83;;
50495;SDS011;38806;51.554;5.704;2022-08-19T10:27:59;26.52;;;23.02;;
50495;SDS011;38806;51.554;5.704;2022-08-19T10:30:00;34.25;;;24.65;;
50495;SDS011;38806;51.554;5.704;2022-08-19T10:32:01;31.48;;;24.17;;
50495;SDS011;38806;51.554;5.704;2022-08-19T10:34:04;30.92;;;26.42;;
50495;SDS011;38806;51.554;5.704;2022-08-19T10:36:06;34.17;;;24.98;;
50495;SDS011;38806;51.554;5.704;2022-08-19T10:38:09;25.98;;;21.80;;
50495;SDS011;38806;51.554;5.704;2022-08-19T10:40:09;29.17;;;24.30;;
50495;SDS011;38806;51.554;5.704;2022-08-19T10:42:11;27.80;;;23.15;;
50495;SDS011;38806;51.554;5.704;2022-08-19T10:44:13;30.70;;;24.83;;
50495;SDS011;38806;51.554;5.704;2022-08-19T10:46:14;28.33;;;23.85;;
50495;SDS011;38806;51.554;5.704;2022-08-19T10:48:15;34.30;;;26.77;;
50495;SDS011;38806;51.554;5.704;2022-08-19T10:50:15;29.13;;;25.07;;
50495;SDS011;38806;51.554;5.704;2022-08-19T10:52:51;31.67;;;27.77;;
50495;SDS011;38806;51.554;5.704;2022-08-19T10:54:51;31.23;;;22.75;;
50495;SDS011;38806;51.554;5.704;2022-08-19T10:57:10;32.13;;;27.13;;
50495;SDS011;38806;51.554;5.704;2022-08-19T10:59:10;33.80;;;27.88;;
50495;SDS011;38806;51.554;5.704;2022-08-19T11:01:13;33.05;;;25.77;;
50495;SDS011;38806;51.554;5.704;2022-08-19T11:03:13;35.10;;;24.85;;
50495;SDS011;38806;51.554;5.704;2022-08-19T11:05:14;33.57;;;27.00;;
50495;SDS011;38806;51.554;5.704;2022-08-19T11:07:14;31.08;;;25.25;;
50495;SDS011;38806;51.554;5.704;2022-08-19T11:09:16;30.65;;;24.40;;
50495;SDS011;38806;51.554;5.704;2022-08-19T11:11:18;28.60;;;23.55;;
50495;SDS011;38806;51.554;5.704;2022-08-19T11:13:18;38.28;;;25.45;;
50495;SDS011;38806;51.554;5.704;2022-08-19T11:15:19;32.22;;;28.20;;
50495;SDS011;38806;51.554;5.704;2022-08-19T11:17:19;26.80;;;22.40;;
50495;SDS011;38806;51.554;5.704;2022-08-19T11:19:20;27.95;;;23.33;;
50495;SDS011;38806;51.554;5.704;2022-08-19T11:21:24;32.55;;;23.40;;
50495;SDS011;38806;51.554;5.704;2022-08-19T11:23:27;32.72;;;25.70;;
50495;SDS011;38806;51.554;5.704;2022-08-19T11:25:27;28.53;;;24.77;;
50495;SDS011;38806;51.554;5.704;2022-08-19T11:27:27;30.83;;;25.85;;
50495;SDS011;38806;51.554;5.704;2022-08-19T11:29:28;35.83;;;28.67;;
50495;SDS011;38806;51.554;5.704;2022-08-19T11:31:30;30.85;;;26.55;;
50495;SDS011;38806;51.554;5.704;2022-08-19T11:33:32;28.90;;;24.52;;
50495;SDS011;38806;51.554;5.704;2022-08-19T11:35:32;30.00;;;25.33;;
50495;SDS011;38806;51.554;5.704;2022-08-19T11:37:33;29.60;;;24.20;;
50495;SDS011;38806;51.554;5.704;2022-08-19T11:39:37;29.65;;;24.17;;
50495;SDS011;38806;51.554;5.704;2022-08-19T11:41:37;27.50;;;23.88;;
50495;SDS011;38806;51.554;5.704;2022-08-19T11:43:38;27.27;;;23.33;;
50495;SDS011;38806;51.554;5.704;2022-08-19T11:45:39;26.45;;;22.08;;
50495;SDS011;38806;51.554;5.704;2022-08-19T11:47:40;25.88;;;22.42;;
50495;SDS011;38806;51.554;5.704;2022-08-19T11:49:40;28.10;;;22.50;;
50495;SDS011;38806;51.554;5.704;2022-08-19T11:51:41;27.85;;;24.85;;
50495;SDS011;38806;51.554;5.704;2022-08-19T11:53:43;35.35;;;26.95;;
50495;SDS011;38806;51.554;5.704;2022-08-19T11:55:43;29.80;;;25.50;;
50495;SDS011;38806;51.554;5.704;2022-08-19T11:57:44;37.17;;;31.58;;
50495;SDS011;38806;51.554;5.704;2022-08-19T11:59:50;32.17;;;25.20;;